createdAt,value
2022-08-03T00:02:20.370Z,76.76
2022-08-03T00:04:48.764Z,77.00
2022-08-03T00:07:17.494Z,77.06
2022-08-03T00:09:46.100Z,77.22
2022-08-03T00:12:14.890Z,77.40
2022-08-03T00:14:43.484Z,77.47
2022-08-03T00:17:12.624Z,77.50
2022-08-03T00:19:41.227Z,77.46
2022-08-03T00:22:09.683Z,77.50
2022-08-03T00:24:37.858Z,77.55
2022-08-03T00:27:06.186Z,77.78
2022-08-03T00:29:34.594Z,77.76
2022-08-03T00:32:24.776Z,78.02
2022-08-03T00:34:57.528Z,78.20
2022-08-03T00:37:41.300Z,78.42
2022-08-03T00:40:13.563Z,78.36
2022-08-03T00:43:09.084Z,78.86
2022-08-03T00:45:40.970Z,79.46
2022-08-03T00:48:19.759Z,79.45
2022-08-03T00:51:00.391Z,79.47
2022-08-03T00:53:29.768Z,79.72
2022-08-03T00:55:58.428Z,79.78
2022-08-03T00:58:26.928Z,79.96
2022-08-03T01:00:55.530Z,80.06
2022-08-03T01:03:24.310Z,80.16
2022-08-03T01:06:13.117Z,80.54
2022-08-03T01:09:04.907Z,80.53
2022-08-03T01:12:24.080Z,80.46
2022-08-03T01:15:06.017Z,80.41
2022-08-03T01:17:51.360Z,80.95
2022-08-03T01:20:22.290Z,81.02
2022-08-03T01:23:09.179Z,81.10
2022-08-03T01:26:06.250Z,81.59
2022-08-03T01:28:35.174Z,81.63
2022-08-03T01:31:09.283Z,81.65
2022-08-03T01:33:44.483Z,82.00
2022-08-03T01:36:28.184Z,82.01
2022-08-03T01:39:01.791Z,82.13
2022-08-03T01:41:36.556Z,82.60
2022-08-03T01:44:29.139Z,82.57
2022-08-03T01:47:01.390Z,82.95
2022-08-03T01:49:32.263Z,83.11
2022-08-03T01:52:04.963Z,83.65
2022-08-03T01:54:43.362Z,83.68
2022-08-03T01:57:12.702Z,83.95
2022-08-03T01:59:43.330Z,84.10
2022-08-03T02:02:15.941Z,84.52
2022-08-03T02:05:03.621Z,84.45
2022-08-03T02:07:32.683Z,84.83
2022-08-03T02:10:02.757Z,84.93
2022-08-03T02:12:34.199Z,84.94
2022-08-03T02:15:04.790Z,85.25
2022-08-03T02:17:39.044Z,85.55
2022-08-03T02:20:10.882Z,85.57
2022-08-03T02:22:42.495Z,85.39
2022-08-03T02:25:16.005Z,85.60
2022-08-03T02:27:59.857Z,85.71
2022-08-03T02:30:38.644Z,85.82
2022-08-03T02:33:28.207Z,86.03
2022-08-03T02:35:57.736Z,86.29
2022-08-03T02:38:40.485Z,86.46
2022-08-03T02:41:18.832Z,86.54
2022-08-03T02:44:06.322Z,86.84
2022-08-03T02:46:40.031Z,87.07
2022-08-03T02:49:40.478Z,87.49
2022-08-03T02:51:58.797Z,87.73
2022-08-03T02:54:28.833Z,87.54
2022-08-03T02:56:59.716Z,88.09
2022-08-03T02:59:28.380Z,88.59
2022-08-03T03:01:57.053Z,88.53
2022-08-03T03:04:28.459Z,89.10
2022-08-03T03:07:04.393Z,89.19
2022-08-03T03:09:40.045Z,89.52
2022-08-03T03:12:11.732Z,89.52
2022-08-03T03:14:40.316Z,89.72
2022-08-03T03:17:10.887Z,89.82
2022-08-03T03:19:41.605Z,90.16
2022-08-03T03:22:10.444Z,90.27
2022-08-03T03:24:41.137Z,90.64
2022-08-03T03:27:09.998Z,90.81
2022-08-03T03:29:45.323Z,90.84
2022-08-03T03:32:14.023Z,90.95
2022-08-03T03:34:44.323Z,90.91
2022-08-03T03:37:13.091Z,90.79
2022-08-03T03:39:41.631Z,90.68
2022-08-03T03:42:10.136Z,90.95
2022-08-03T03:44:38.525Z,91.13
2022-08-03T03:47:07.074Z,91.20
2022-08-03T03:49:35.876Z,91.19
2022-08-03T03:52:04.345Z,91.34
2022-08-03T03:54:46.332Z,91.18
2022-08-03T03:57:14.765Z,91.18
2022-08-03T03:59:43.935Z,90.89
2022-08-03T04:02:13.837Z,91.13
2022-08-03T04:04:59.906Z,90.87
2022-08-03T04:07:46.802Z,90.90
2022-08-03T04:10:38.658Z,90.49
2022-08-03T04:13:11.128Z,90.85
2022-08-03T04:15:43.533Z,90.55
2022-08-03T04:18:15.105Z,90.58
2022-08-03T04:20:48.788Z,90.56
2022-08-03T04:23:22.434Z,90.34
2022-08-03T04:25:52.999Z,90.36
2022-08-03T04:28:31.185Z,90.33
2022-08-03T04:31:01.505Z,90.21
2022-08-03T04:33:33.564Z,89.75
2022-08-03T04:36:07.711Z,89.64
2022-08-03T04:38:43.974Z,89.72
2022-08-03T04:41:12.779Z,89.78
2022-08-03T04:43:41.858Z,89.76
2022-08-03T04:46:10.471Z,89.69
2022-08-03T04:48:42.304Z,89.70
2022-08-03T04:51:13.071Z,89.89
2022-08-03T04:53:41.666Z,89.62
2022-08-03T04:56:10.334Z,89.60
2022-08-03T04:58:38.792Z,89.53
2022-08-03T05:01:07.460Z,90.09
2022-08-03T05:03:35.815Z,90.29
2022-08-03T05:06:09.713Z,90.45
2022-08-03T05:08:46.411Z,90.76
2022-08-03T05:11:17.775Z,90.76
2022-08-03T05:13:49.556Z,91.07
2022-08-03T05:16:18.031Z,90.92
2022-08-03T05:18:47.080Z,91.02
2022-08-03T05:21:16.821Z,90.96
2022-08-03T05:23:45.924Z,90.40
2022-08-03T05:26:14.397Z,89.97
2022-08-03T05:28:51.385Z,90.11
2022-08-03T05:31:20.266Z,89.37
2022-08-03T05:33:49.404Z,89.14
2022-08-03T05:36:17.978Z,88.69
2022-08-03T05:38:46.520Z,88.26
2022-08-03T05:41:21.490Z,87.94
2022-08-03T05:43:56.601Z,87.39
2022-08-03T05:46:25.338Z,87.00
2022-08-03T05:48:54.227Z,86.34
2022-08-03T05:51:22.728Z,85.42
2022-08-03T05:53:51.159Z,84.30
2022-08-03T05:56:22.627Z,82.66
2022-08-03T05:58:52.181Z,81.79
2022-08-03T06:01:22.949Z,81.10
2022-08-03T06:03:52.102Z,80.09
2022-08-03T06:06:20.656Z,78.70
2022-08-03T06:08:49.115Z,77.73
2022-08-03T06:11:17.758Z,76.86
2022-08-03T06:13:46.290Z,76.18
2022-08-03T06:16:14.648Z,74.89
2022-08-03T06:18:44.157Z,73.89
2022-08-03T06:21:15.351Z,72.59
2022-08-03T06:23:52.817Z,71.80
2022-08-03T06:26:25.408Z,71.16
2022-08-03T06:28:54.930Z,70.60
2022-08-03T06:31:33.107Z,68.89
2022-08-03T06:34:32.656Z,68.56
2022-08-03T06:36:58.627Z,68.12
2022-08-03T06:39:30.646Z,66.70
2022-08-03T06:41:59.214Z,67.20
2022-08-03T06:44:27.727Z,66.33
2022-08-03T06:46:56.473Z,66.20
2022-08-03T06:49:24.999Z,65.48
2022-08-03T06:52:03.277Z,64.45
2022-08-03T06:54:34.896Z,65.26
2022-08-03T06:57:03.642Z,64.53
2022-08-03T07:00:10.872Z,63.93
2022-08-03T07:02:20.616Z,62.90
2022-08-03T07:04:52.202Z,62.12
2022-08-03T07:07:20.826Z,61.74
2022-08-03T07:09:57.100Z,60.58
2022-08-03T07:12:28.625Z,59.96
2022-08-03T07:15:01.181Z,59.38
2022-08-03T07:17:32.189Z,59.19
2022-08-03T07:20:01.571Z,57.41
2022-08-03T07:22:30.127Z,56.26
2022-08-03T07:24:59.101Z,55.14
2022-08-03T07:27:30.357Z,54.72
2022-08-03T07:29:59.978Z,53.91
2022-08-03T07:32:31.613Z,54.17
2022-08-03T07:35:01.419Z,52.96
2022-08-03T07:37:31.129Z,52.19
2022-08-03T07:40:03.335Z,52.56
2022-08-03T07:42:31.896Z,51.78
2022-08-03T07:45:00.611Z,52.41
2022-08-03T07:47:35.465Z,50.23
2022-08-03T07:50:05.426Z,50.33
2022-08-03T07:52:53.111Z,51.01
2022-08-03T07:55:24.273Z,50.28
2022-08-03T07:58:17.237Z,48.50
2022-08-03T08:00:47.625Z,47.96
2022-08-03T08:03:15.713Z,47.63
2022-08-03T08:05:43.943Z,48.13
2022-08-03T08:08:12.058Z,46.65
2022-08-03T08:10:40.524Z,46.13
2022-08-03T08:13:08.510Z,46.18
2022-08-03T08:15:36.479Z,44.79
2022-08-03T08:18:11.295Z,44.65
2022-08-03T08:20:39.856Z,45.40
2022-08-03T08:23:37.673Z,44.96
2022-08-03T08:25:58.955Z,41.69
2022-08-03T08:28:32.650Z,41.23
2022-08-03T08:31:01.621Z,41.91
2022-08-03T08:33:48.010Z,41.48
2022-08-03T08:36:18.742Z,40.30
2022-08-03T08:38:47.079Z,39.40
2022-08-03T08:41:16.504Z,39.67
2022-08-03T08:43:44.765Z,39.59
2022-08-03T08:46:23.339Z,41.49
2022-08-03T08:48:54.164Z,40.40
2022-08-03T08:51:23.732Z,40.43
2022-08-03T08:54:13.761Z,40.96
2022-08-03T08:56:42.293Z,40.37
2022-08-03T08:59:10.738Z,36.54
2022-08-03T09:01:39.178Z,35.78
2022-08-03T09:04:11.353Z,36.50
2022-08-03T09:06:39.495Z,37.91
2022-08-03T09:09:08.488Z,38.47
2022-08-03T09:11:53.401Z,38.85
2022-08-03T09:14:36.906Z,36.39
2022-08-03T09:17:17.426Z,37.64
2022-08-03T09:20:08.905Z,37.13
2022-08-03T09:22:37.503Z,37.25
2022-08-03T09:25:23.934Z,36.71
2022-08-03T09:27:53.420Z,36.76
2022-08-03T09:30:34.674Z,36.83
2022-08-03T09:33:16.429Z,36.21
2022-08-03T09:35:55.358Z,34.84
2022-08-03T09:38:27.601Z,35.69
2022-08-03T09:41:00.661Z,36.07
2022-08-03T09:43:30.176Z,36.94
2022-08-03T09:46:07.548Z,37.33
2022-08-03T09:48:37.541Z,32.88
2022-08-03T09:51:32.329Z,34.13
2022-08-03T09:54:00.281Z,37.13
2022-08-03T09:56:48.576Z,37.64
2022-08-03T09:59:29.886Z,38.01
2022-08-03T10:01:59.782Z,37.89
2022-08-03T10:04:28.476Z,37.62
2022-08-03T10:07:11.768Z,37.17
2022-08-03T10:09:40.296Z,36.94
2022-08-03T10:12:14.124Z,35.18
2022-08-03T10:14:45.404Z,36.09
2022-08-03T10:17:13.966Z,39.88
2022-08-03T10:19:42.828Z,37.83
2022-08-03T10:22:16.530Z,38.41
2022-08-03T10:25:10.697Z,36.66
2022-08-03T10:27:46.417Z,36.88
2022-08-03T10:30:15.461Z,38.71
2022-08-03T10:32:49.819Z,35.46
2022-08-03T10:35:21.672Z,35.75
2022-08-03T10:37:59.564Z,34.53
2022-08-03T10:40:52.620Z,33.72
2022-08-03T10:43:35.687Z,33.76
2022-08-03T10:46:07.061Z,35.70
2022-08-03T10:48:36.945Z,35.23
2022-08-03T10:51:06.863Z,35.25
2022-08-03T10:53:44.056Z,36.21
2022-08-03T10:56:51.730Z,36.07
2022-08-03T10:59:27.775Z,36.19
2022-08-03T11:02:00.759Z,35.45
2022-08-03T11:04:30.977Z,35.08
2022-08-03T11:07:17.614Z,33.59
2022-08-03T11:09:51.425Z,34.38
2022-08-03T11:12:38.273Z,35.57
2022-08-03T11:15:09.677Z,34.30
2022-08-03T11:17:46.746Z,33.35
2022-08-03T11:21:02.529Z,34.76
2022-08-03T11:24:02.759Z,33.29
2022-08-03T11:26:35.120Z,34.13
2022-08-03T11:29:30.429Z,34.59
2022-08-03T11:31:59.067Z,34.31
2022-08-03T11:34:27.801Z,35.43
2022-08-03T11:37:31.401Z,35.35
2022-08-03T11:40:02.889Z,34.61
2022-08-03T11:42:36.968Z,34.75
2022-08-03T11:45:09.283Z,35.31
2022-08-03T11:47:50.942Z,34.67
2022-08-03T11:50:20.269Z,35.16
2022-08-03T11:52:49.994Z,33.73
2022-08-03T11:55:21.971Z,33.39
2022-08-03T11:59:10.936Z,36.24
2022-08-03T12:00:38.791Z,34.34
2022-08-03T12:03:11.861Z,33.79
2022-08-03T12:05:54.941Z,34.52
2022-08-03T12:08:28.997Z,33.47
2022-08-03T12:11:00.073Z,31.96
2022-08-03T12:14:27.419Z,31.52
2022-08-03T12:16:29.686Z,33.22
2022-08-03T12:19:08.297Z,32.35
2022-08-03T12:21:36.720Z,32.34
2022-08-03T12:24:06.502Z,32.00
2022-08-03T12:26:59.023Z,29.69
2022-08-03T12:29:28.608Z,29.21
2022-08-03T12:31:57.178Z,29.99
2022-08-03T12:34:25.202Z,31.64
2022-08-03T12:37:00.210Z,29.87
2022-08-03T12:39:31.052Z,30.85
2022-08-03T12:41:59.579Z,31.26
2022-08-03T12:44:37.796Z,32.55
2022-08-03T12:47:06.909Z,31.53
2022-08-03T12:49:53.027Z,31.92
2022-08-03T12:52:23.655Z,30.83
2022-08-03T12:54:59.871Z,29.79
2022-08-03T12:57:44.368Z,27.81
2022-08-03T13:00:28.673Z,27.71
2022-08-03T13:03:38.819Z,29.01
2022-08-03T13:06:04.082Z,28.55
2022-08-03T13:08:32.537Z,28.83
2022-08-03T13:11:00.523Z,30.30
2022-08-03T13:13:47.657Z,29.52
2022-08-03T13:16:19.378Z,29.46
2022-08-03T13:18:48.201Z,31.45
2022-08-03T13:21:17.663Z,31.11
2022-08-03T13:23:46.436Z,31.91
2022-08-03T13:26:14.986Z,32.26
2022-08-03T13:28:43.055Z,32.62
2022-08-03T13:31:11.320Z,32.26
2022-08-03T13:33:40.808Z,30.98
2022-08-03T13:36:09.293Z,31.53
2022-08-03T13:38:37.320Z,30.29
2022-08-03T13:41:06.301Z,30.41
2022-08-03T13:43:34.344Z,29.40
2022-08-03T13:46:02.351Z,28.96
2022-08-03T13:48:35.946Z,28.86
2022-08-03T13:51:11.727Z,28.62
2022-08-03T13:53:52.669Z,28.29
2022-08-03T13:56:20.837Z,29.92
2022-08-03T13:58:49.112Z,30.05
2022-08-03T14:01:22.732Z,30.47
2022-08-03T14:04:02.948Z,30.51
2022-08-03T14:06:31.568Z,31.91
2022-08-03T14:09:00.721Z,30.73
2022-08-03T14:12:07.320Z,30.82
2022-08-03T14:14:18.004Z,30.59
2022-08-03T14:16:46.405Z,31.23
2022-08-03T14:19:17.955Z,31.16
2022-08-03T14:21:53.025Z,30.21
2022-08-03T14:24:35.129Z,31.34
2022-08-03T14:27:09.046Z,31.82
2022-08-03T14:29:37.982Z,29.56
2022-08-03T14:32:10.922Z,29.15
2022-08-03T14:34:41.035Z,31.88
2022-08-03T14:37:09.576Z,30.25
2022-08-03T14:42:27.048Z,29.06
2022-08-03T14:44:58.881Z,28.58
2022-08-03T14:47:30.747Z,28.38
2022-08-03T14:50:30.779Z,28.69
2022-08-03T14:52:47.618Z,28.84
2022-08-03T14:55:15.649Z,29.49
2022-08-03T14:57:43.636Z,28.18
2022-08-03T15:00:12.535Z,29.07
2022-08-03T15:02:40.590Z,29.96
2022-08-03T15:05:10.806Z,28.06
2022-08-03T15:07:38.897Z,27.57
2022-08-03T15:10:07.690Z,27.94
2022-08-03T15:12:36.152Z,28.50
2022-08-03T15:15:04.383Z,28.31
2022-08-03T15:17:32.888Z,27.62
2022-08-03T15:20:26.522Z,27.55
2022-08-03T15:22:49.096Z,29.75
2022-08-03T15:26:27.839Z,29.34
2022-08-03T15:28:05.796Z,28.15
2022-08-03T15:30:37.015Z,28.03
2022-08-03T15:33:05.893Z,28.11
2022-08-03T15:35:34.398Z,27.87
2022-08-03T15:38:07.296Z,28.20
2022-08-03T15:40:37.657Z,27.68
2022-08-03T15:43:05.716Z,27.83
2022-08-03T15:45:36.223Z,29.01
2022-08-03T15:48:07.952Z,29.04
2022-08-03T15:50:35.994Z,29.09
2022-08-03T15:53:04.704Z,30.24
2022-08-03T15:55:33.229Z,28.75
2022-08-03T15:59:04.662Z,27.86
2022-08-03T16:00:49.890Z,27.80
2022-08-03T16:03:18.125Z,28.87
2022-08-03T16:05:49.253Z,29.20
2022-08-03T16:08:17.685Z,28.79
2022-08-03T16:10:46.767Z,29.33
2022-08-03T16:13:16.919Z,29.82
2022-08-03T16:15:45.304Z,28.96
2022-08-03T16:18:13.658Z,28.94
2022-08-03T16:20:42.277Z,29.20
2022-08-03T16:23:12.716Z,30.88
2022-08-03T16:25:44.428Z,30.55
2022-08-03T16:28:17.977Z,29.95
2022-08-03T16:30:47.861Z,28.29
2022-08-03T16:33:17.933Z,29.21
2022-08-03T16:35:49.681Z,28.22
2022-08-03T16:38:19.277Z,27.98
2022-08-03T16:40:52.293Z,27.46
2022-08-03T16:43:23.335Z,27.85
2022-08-03T16:45:52.011Z,27.14
2022-08-03T16:48:20.620Z,28.21
2022-08-03T16:50:49.171Z,27.08
2022-08-03T16:53:33.093Z,27.27
2022-08-03T16:56:10.133Z,26.99
2022-08-03T16:58:42.117Z,27.34
2022-08-03T17:01:24.182Z,27.56
2022-08-03T17:04:04.637Z,27.64
2022-08-03T17:06:45.030Z,26.90
2022-08-03T17:09:18.969Z,28.01
2022-08-03T17:11:52.020Z,27.17
2022-08-03T17:14:23.889Z,27.72
2022-08-03T17:17:01.069Z,27.17
2022-08-03T17:19:35.099Z,27.26
2022-08-03T17:22:15.957Z,27.13
2022-08-03T17:24:55.039Z,27.53
2022-08-03T17:28:49.454Z,27.44
2022-08-03T17:30:25.325Z,27.42
2022-08-03T17:32:57.417Z,27.21
2022-08-03T17:35:35.516Z,28.17
2022-08-03T17:38:10.514Z,27.89
2022-08-03T17:40:47.894Z,28.52
2022-08-03T17:44:13.380Z,28.52
2022-08-03T17:46:10.916Z,28.51
2022-08-03T17:48:41.551Z,29.15
2022-08-03T17:51:24.876Z,28.30
2022-08-03T17:54:27.121Z,28.29
2022-08-03T17:57:27.134Z,28.04
2022-08-03T17:59:59.094Z,28.10
2022-08-03T18:03:18.445Z,28.99
2022-08-03T18:06:08.955Z,29.15
2022-08-03T18:08:48.294Z,28.25
2022-08-03T18:11:23.741Z,29.26
2022-08-03T18:14:17.819Z,30.26
2022-08-03T18:16:53.912Z,29.70
2022-08-03T18:20:01.918Z,30.15
2022-08-03T18:22:11.324Z,30.61
2022-08-03T18:24:40.947Z,30.43
2022-08-03T18:27:10.996Z,30.65
2022-08-03T18:29:41.389Z,29.69
2022-08-03T18:32:13.721Z,29.77
2022-08-03T18:34:54.123Z,31.84
2022-08-03T18:37:26.221Z,32.14
2022-08-03T18:39:58.514Z,31.94
2022-08-03T18:42:28.550Z,32.70
2022-08-03T18:45:14.967Z,33.24
2022-08-03T18:47:56.100Z,33.62
2022-08-03T18:50:55.080Z,34.49
2022-08-03T18:54:04.089Z,34.31
2022-08-03T18:56:50.129Z,35.51
2022-08-03T18:59:52.532Z,36.47
2022-08-03T19:02:48.869Z,36.95
2022-08-03T19:05:24.740Z,36.87
2022-08-03T19:08:28.789Z,37.52
2022-08-03T19:11:02.794Z,37.40
2022-08-03T19:13:50.159Z,39.11
2022-08-03T19:16:35.215Z,39.83
2022-08-03T19:19:14.427Z,39.88
2022-08-03T19:21:43.345Z,39.96
2022-08-03T19:24:11.757Z,40.30
2022-08-03T19:26:41.640Z,40.45
2022-08-03T19:29:15.144Z,40.56
2022-08-03T19:31:59.605Z,40.73
2022-08-03T19:34:32.911Z,40.90
2022-08-03T19:37:01.642Z,41.66
2022-08-03T19:39:31.732Z,42.21
2022-08-03T19:45:11.450Z,44.04
2022-08-03T19:48:09.996Z,44.34
2022-08-03T19:50:44.425Z,44.36
2022-08-03T19:53:16.886Z,44.74
2022-08-03T19:55:49.029Z,45.03
2022-08-03T19:58:28.523Z,45.16
2022-08-03T20:00:57.599Z,45.39
2022-08-03T20:03:43.350Z,45.46
2022-08-03T20:06:16.887Z,45.79
2022-08-03T20:08:45.672Z,46.29
2022-08-03T20:11:20.095Z,46.12
2022-08-03T20:13:57.339Z,46.29
2022-08-03T20:16:26.143Z,46.68
2022-08-03T20:18:54.532Z,46.76
2022-08-03T20:21:28.531Z,47.09
2022-08-03T20:24:23.875Z,47.00
2022-08-03T20:26:57.836Z,46.90
2022-08-03T20:30:06.600Z,46.96
2022-08-03T20:32:35.829Z,46.49
2022-08-03T20:35:04.402Z,46.99
2022-08-03T20:37:38.712Z,47.24
2022-08-03T20:40:10.641Z,47.47
2022-08-03T20:42:39.315Z,47.61
2022-08-03T20:45:13.987Z,47.61
2022-08-03T20:47:57.228Z,47.99
2022-08-03T20:50:26.278Z,47.56
2022-08-03T20:52:55.938Z,48.55
2022-08-03T20:55:47.905Z,49.14
2022-08-03T20:58:13.295Z,49.59
2022-08-03T21:00:43.672Z,49.94
2022-08-03T21:03:11.827Z,50.53
2022-08-03T21:05:51.194Z,50.69
2022-08-03T21:08:23.015Z,51.19
2022-08-03T21:10:54.337Z,51.23
2022-08-03T21:13:10.857Z,42.97
2022-08-03T21:13:41.088Z,51.55
2022-08-03T21:16:14.017Z,51.48
2022-08-03T21:19:04.404Z,51.62
2022-08-03T21:21:33.799Z,51.85
2022-08-03T21:24:03.539Z,52.29
2022-08-03T21:26:34.989Z,52.32
2022-08-03T21:29:03.480Z,51.71
2022-08-03T21:31:31.921Z,51.10
2022-08-03T21:34:04.432Z,51.50
2022-08-03T21:36:36.612Z,51.45
2022-08-03T21:39:09.180Z,51.03
2022-08-03T21:41:39.991Z,51.04
2022-08-03T21:44:11.056Z,51.62
2022-08-03T21:46:42.077Z,52.53
2022-08-03T21:49:51.782Z,53.19
2022-08-03T21:52:01.729Z,53.00
2022-08-03T21:54:39.066Z,53.39
2022-08-03T21:57:18.160Z,53.73
2022-08-03T21:59:58.754Z,55.08
2022-08-03T22:02:32.515Z,55.83
2022-08-03T22:05:05.179Z,56.08
2022-08-03T22:07:34.209Z,56.41
2022-08-03T22:10:06.604Z,56.41
2022-08-03T22:12:35.864Z,55.45
2022-08-03T22:15:07.944Z,54.96
2022-08-03T22:17:54.553Z,54.97
2022-08-03T22:20:25.636Z,55.30
2022-08-03T22:23:03.869Z,54.95
2022-08-03T22:25:36.549Z,55.15
2022-08-03T22:28:10.319Z,55.77
2022-08-03T22:30:39.979Z,55.96
2022-08-03T22:33:11.964Z,56.33
2022-08-03T22:35:48.306Z,56.61
2022-08-03T22:38:17.991Z,57.63
2022-08-03T22:40:49.855Z,57.73
2022-08-03T22:43:18.624Z,58.55
2022-08-03T22:46:10.566Z,58.52
2022-08-03T22:48:41.249Z,58.39
2022-08-03T22:51:10.994Z,58.10
2022-08-03T22:53:40.979Z,57.31
2022-08-03T22:56:09.874Z,56.91
2022-08-03T22:58:38.441Z,56.87
2022-08-03T23:01:12.607Z,56.45
2022-08-03T23:03:58.731Z,55.99
2022-08-03T23:06:38.092Z,55.97
2022-08-03T23:09:10.974Z,56.22
2022-08-03T23:11:45.331Z,55.52
2022-08-03T23:14:17.549Z,55.64
2022-08-03T23:16:47.372Z,55.46
2022-08-03T23:19:17.031Z,55.51
2022-08-03T23:22:03.134Z,55.57
2022-08-03T23:24:36.955Z,54.62
2022-08-03T23:27:07.632Z,54.41
2022-08-03T23:29:38.064Z,54.27
2022-08-03T23:32:07.574Z,54.41
2022-08-03T23:34:53.743Z,54.02
2022-08-03T23:37:22.545Z,54.13
2022-08-03T23:39:51.208Z,54.93
2022-08-03T23:42:21.594Z,54.37
2022-08-03T23:44:56.669Z,54.37
2022-08-03T23:47:47.383Z,55.53
2022-08-03T23:50:16.446Z,56.54
2022-08-03T23:53:13.797Z,57.63
2022-08-03T23:56:03.742Z,57.36
2022-08-03T23:59:03.966Z,57.12
